sensor_id;sensor_type;location;lat;lon;timestamp;pressure;altitude;pressure_sealevel;temperature;humidity
10948;BME280;5526;42.070;24.752;2022-12-20T00:01:36;101170.41;;;1.96;80.41
10948;BME280;5526;42.070;24.752;2022-12-20T00:04:04;101176.38;;;2.06;80.31
10948;BME280;5526;42.070;24.752;2022-12-20T00:06:33;101172.81;;;2.07;80.48
10948;BME280;5526;42.070;24.752;2022-12-20T00:09:03;101178.22;;;2.13;80.05
10948;BME280;5526;42.070;24.752;2022-12-20T00:11:34;101174.19;;;2.01;79.49
10948;BME280;5526;42.070;24.752;2022-12-20T00:14:02;101171.69;;;2.09;79.41
10948;BME280;5526;42.070;24.752;2022-12-20T00:16:30;101174.59;;;2.24;79.04
10948;BME280;5526;42.070;24.752;2022-12-20T00:18:59;101204.25;;;2.48;78.98
10948;BME280;5526;42.070;24.752;2022-12-20T00:21:28;101164.13;;;2.16;78.26
10948;BME280;5526;42.070;24.752;2022-12-20T00:23:57;101142.72;;;1.87;78.84
10948;BME280;5526;42.070;24.752;2022-12-20T00:26:26;101194.63;;;2.14;78.95
10948;BME280;5526;42.070;24.752;2022-12-20T00:28:56;101190.53;;;2.11;78.71
10948;BME280;5526;42.070;24.752;2022-12-20T00:31:26;101151.84;;;1.91;78.90
10948;BME280;5526;42.070;24.752;2022-12-20T00:33:55;101157.13;;;1.72;79.04
10948;BME280;5526;42.070;24.752;2022-12-20T00:36:26;101144.75;;;1.56;79.69
10948;BME280;5526;42.070;24.752;2022-12-20T00:38:55;101180.41;;;1.64;79.58
10948;BME280;5526;42.070;24.752;2022-12-20T00:41:26;101149.09;;;1.38;80.20
10948;BME280;5526;42.070;24.752;2022-12-20T00:43:56;101161.91;;;1.40;80.45
10948;BME280;5526;42.070;24.752;2022-12-20T00:46:25;101153.34;;;1.30;80.47
10948;BME280;5526;42.070;24.752;2022-12-20T00:48:54;101160.97;;;1.31;81.00
10948;BME280;5526;42.070;24.752;2022-12-20T00:51:24;101188.09;;;1.56;81.36
10948;BME280;5526;42.070;24.752;2022-12-20T00:53:52;101208.94;;;1.64;80.72
10948;BME280;5526;42.070;24.752;2022-12-20T00:56:21;101137.41;;;1.25;80.70
10948;BME280;5526;42.070;24.752;2022-12-20T00:58:49;101145.50;;;1.49;80.94
10948;BME280;5526;42.070;24.752;2022-12-20T01:01:21;101171.66;;;1.65;80.02
10948;BME280;5526;42.070;24.752;2022-12-20T01:03:51;101150.31;;;1.44;80.19
10948;BME280;5526;42.070;24.752;2022-12-20T01:06:20;101200.84;;;1.76;79.99
10948;BME280;5526;42.070;24.752;2022-12-20T01:08:48;101205.63;;;1.71;80.02
10948;BME280;5526;42.070;24.752;2022-12-20T01:11:17;101170.88;;;1.55;80.09
10948;BME280;5526;42.070;24.752;2022-12-20T01:13:48;101185.84;;;1.70;80.58
10948;BME280;5526;42.070;24.752;2022-12-20T01:16:20;101136.88;;;1.48;79.71
10948;BME280;5526;42.070;24.752;2022-12-20T01:18:49;101116.06;;;1.31;79.77
10948;BME280;5526;42.070;24.752;2022-12-20T01:21:19;101190.50;;;1.67;79.69
10948;BME280;5526;42.070;24.752;2022-12-20T01:23:48;101207.53;;;1.79;79.66
10948;BME280;5526;42.070;24.752;2022-12-20T01:26:17;101162.66;;;1.59;79.46
10948;BME280;5526;42.070;24.752;2022-12-20T01:28:46;101130.47;;;1.43;79.51
10948;BME280;5526;42.070;24.752;2022-12-20T01:31:15;101134.03;;;1.42;79.42
10948;BME280;5526;42.070;24.752;2022-12-20T01:33:46;101114.03;;;1.34;79.37
10948;BME280;5526;42.070;24.752;2022-12-20T01:36:16;101100.09;;;1.35;79.64
10948;BME280;5526;42.070;24.752;2022-12-20T01:38:44;101100.19;;;1.43;79.78
10948;BME280;5526;42.070;24.752;2022-12-20T01:41:14;101095.97;;;1.42;79.31
10948;BME280;5526;42.070;24.752;2022-12-20T01:43:49;101122.53;;;1.54;79.32
10948;BME280;5526;42.070;24.752;2022-12-20T01:46:18;101127.44;;;1.57;79.44
10948;BME280;5526;42.070;24.752;2022-12-20T01:48:49;101120.75;;;1.54;79.24
10948;BME280;5526;42.070;24.752;2022-12-20T01:51:19;101112.03;;;1.46;79.86
10948;BME280;5526;42.070;24.752;2022-12-20T01:53:51;101146.75;;;1.72;79.89
10948;BME280;5526;42.070;24.752;2022-12-20T01:56:23;101097.25;;;1.29;79.91
10948;BME280;5526;42.070;24.752;2022-12-20T01:58:52;101088.97;;;1.16;80.12
10948;BME280;5526;42.070;24.752;2022-12-20T02:01:22;101120.50;;;1.11;81.34
10948;BME280;5526;42.070;24.752;2022-12-20T02:03:53;101131.72;;;1.12;83.29
10948;BME280;5526;42.070;24.752;2022-12-20T02:06:23;101115.06;;;1.05;83.36
10948;BME280;5526;42.070;24.752;2022-12-20T02:08:52;101104.38;;;0.52;87.24
10948;BME280;5526;42.070;24.752;2022-12-20T02:11:37;101095.00;;;0.42;88.17
10948;BME280;5526;42.070;24.752;2022-12-20T02:14:14;101097.13;;;0.65;88.37
10948;BME280;5526;42.070;24.752;2022-12-20T02:16:50;101086.13;;;0.63;88.01
10948;BME280;5526;42.070;24.752;2022-12-20T02:19:44;101119.84;;;1.00;87.71
10948;BME280;5526;42.070;24.752;2022-12-20T02:22:24;101096.81;;;0.97;88.54
10948;BME280;5526;42.070;24.752;2022-12-20T02:25:08;101095.16;;;0.96;88.43
10948;BME280;5526;42.070;24.752;2022-12-20T02:27:53;101073.88;;;1.02;88.16
10948;BME280;5526;42.070;24.752;2022-12-20T02:30:31;101096.47;;;1.09;87.18
10948;BME280;5526;42.070;24.752;2022-12-20T02:33:02;101071.34;;;0.83;88.22
10948;BME280;5526;42.070;24.752;2022-12-20T02:35:33;101085.06;;;1.02;88.33
10948;BME280;5526;42.070;24.752;2022-12-20T02:38:03;101075.94;;;0.98;88.27
10948;BME280;5526;42.070;24.752;2022-12-20T02:40:52;101115.13;;;1.32;88.69
10948;BME280;5526;42.070;24.752;2022-12-20T02:43:22;101058.03;;;1.05;87.97
10948;BME280;5526;42.070;24.752;2022-12-20T02:46:10;101060.38;;;0.98;88.57
10948;BME280;5526;42.070;24.752;2022-12-20T02:48:39;101046.13;;;0.75;89.52
10948;BME280;5526;42.070;24.752;2022-12-20T02:51:09;101094.44;;;1.13;90.45
10948;BME280;5526;42.070;24.752;2022-12-20T02:53:39;101067.09;;;0.91;89.17
10948;BME280;5526;42.070;24.752;2022-12-20T02:56:11;101055.34;;;0.97;89.44
10948;BME280;5526;42.070;24.752;2022-12-20T02:58:46;101065.78;;;1.14;88.85
10948;BME280;5526;42.070;24.752;2022-12-20T03:01:21;101040.16;;;1.02;88.39
10948;BME280;5526;42.070;24.752;2022-12-20T03:03:52;101054.88;;;1.11;89.17
10948;BME280;5526;42.070;24.752;2022-12-20T03:06:20;101063.38;;;1.03;88.56
10948;BME280;5526;42.070;24.752;2022-12-20T03:08:48;101055.75;;;0.92;90.11
10948;BME280;5526;42.070;24.752;2022-12-20T03:11:16;101091.06;;;1.03;90.22
10948;BME280;5526;42.070;24.752;2022-12-20T03:13:45;101051.56;;;0.82;90.27
10948;BME280;5526;42.070;24.752;2022-12-20T03:16:13;101059.59;;;0.88;90.89
10948;BME280;5526;42.070;24.752;2022-12-20T03:18:42;101110.16;;;1.02;92.42
10948;BME280;5526;42.070;24.752;2022-12-20T03:21:11;101096.16;;;0.76;93.29
10948;BME280;5526;42.070;24.752;2022-12-20T03:23:38;101066.34;;;0.53;93.55
10948;BME280;5526;42.070;24.752;2022-12-20T03:26:07;101098.63;;;0.77;93.95
10948;BME280;5526;42.070;24.752;2022-12-20T03:28:35;101041.00;;;0.56;93.50
10948;BME280;5526;42.070;24.752;2022-12-20T03:31:02;101063.34;;;0.48;93.33
10948;BME280;5526;42.070;24.752;2022-12-20T03:33:30;101070.88;;;0.22;95.87
10948;BME280;5526;42.070;24.752;2022-12-20T03:36:00;101095.78;;;0.42;96.81
10948;BME280;5526;42.070;24.752;2022-12-20T03:38:28;101096.75;;;0.70;96.40
10948;BME280;5526;42.070;24.752;2022-12-20T03:40:55;101112.50;;;0.95;94.10
10948;BME280;5526;42.070;24.752;2022-12-20T03:43:23;101084.84;;;0.86;94.40
10948;BME280;5526;42.070;24.752;2022-12-20T03:45:51;101049.63;;;0.84;93.99
10948;BME280;5526;42.070;24.752;2022-12-20T03:48:19;101083.38;;;1.11;93.39
10948;BME280;5526;42.070;24.752;2022-12-20T03:50:47;101075.19;;;1.15;93.02
10948;BME280;5526;42.070;24.752;2022-12-20T03:53:16;101079.13;;;1.19;92.51
10948;BME280;5526;42.070;24.752;2022-12-20T03:55:44;101117.81;;;1.40;92.37
10948;BME280;5526;42.070;24.752;2022-12-20T03:58:12;101098.06;;;1.29;92.04
10948;BME280;5526;42.070;24.752;2022-12-20T04:00:40;101087.75;;;1.20;92.44
10948;BME280;5526;42.070;24.752;2022-12-20T04:03:08;101100.41;;;1.23;91.84
10948;BME280;5526;42.070;24.752;2022-12-20T04:05:36;101071.41;;;1.00;92.23
10948;BME280;5526;42.070;24.752;2022-12-20T04:08:04;101066.25;;;0.91;92.70
10948;BME280;5526;42.070;24.752;2022-12-20T04:10:33;101084.00;;;0.86;92.97
10948;BME280;5526;42.070;24.752;2022-12-20T04:13:21;101037.56;;;0.65;93.92
10948;BME280;5526;42.070;24.752;2022-12-20T04:15:49;101116.69;;;1.06;92.78
10948;BME280;5526;42.070;24.752;2022-12-20T04:18:17;101079.81;;;0.75;93.67
10948;BME280;5526;42.070;24.752;2022-12-20T04:20:45;101074.06;;;0.81;93.63
10948;BME280;5526;42.070;24.752;2022-12-20T04:23:18;101104.47;;;0.98;92.67
10948;BME280;5526;42.070;24.752;2022-12-20T04:25:48;101071.22;;;0.75;92.78
10948;BME280;5526;42.070;24.752;2022-12-20T04:28:16;101061.81;;;0.74;92.82
10948;BME280;5526;42.070;24.752;2022-12-20T04:30:44;101076.78;;;0.80;92.32
10948;BME280;5526;42.070;24.752;2022-12-20T04:33:12;101099.28;;;0.89;92.16
10948;BME280;5526;42.070;24.752;2022-12-20T04:35:42;101057.50;;;0.46;92.32
10948;BME280;5526;42.070;24.752;2022-12-20T04:38:10;101077.66;;;0.52;93.46
10948;BME280;5526;42.070;24.752;2022-12-20T04:40:38;101083.38;;;0.65;92.69
10948;BME280;5526;42.070;24.752;2022-12-20T04:43:08;101063.09;;;0.51;92.60
10948;BME280;5526;42.070;24.752;2022-12-20T04:45:38;101123.16;;;0.92;92.22
10948;BME280;5526;42.070;24.752;2022-12-20T04:48:05;101088.09;;;0.88;91.22
10948;BME280;5526;42.070;24.752;2022-12-20T04:50:33;101101.84;;;1.08;90.48
10948;BME280;5526;42.070;24.752;2022-12-20T04:53:01;101049.94;;;0.81;90.14
10948;BME280;5526;42.070;24.752;2022-12-20T04:55:46;101103.47;;;1.09;89.58
10948;BME280;5526;42.070;24.752;2022-12-20T04:58:15;101105.84;;;0.93;90.02
10948;BME280;5526;42.070;24.752;2022-12-20T05:00:43;101098.63;;;0.77;90.60
10948;BME280;5526;42.070;24.752;2022-12-20T05:03:11;101033.63;;;0.42;91.12
10948;BME280;5526;42.070;24.752;2022-12-20T05:05:39;101053.69;;;0.50;91.37
10948;BME280;5526;42.070;24.752;2022-12-20T05:08:07;101120.03;;;0.79;92.22
10948;BME280;5526;42.070;24.752;2022-12-20T05:10:35;101079.44;;;0.51;92.42
10948;BME280;5526;42.070;24.752;2022-12-20T05:13:03;101026.84;;;0.32;92.92
10948;BME280;5526;42.070;24.752;2022-12-20T05:15:33;101051.88;;;0.60;92.00
10948;BME280;5526;42.070;24.752;2022-12-20T05:18:01;101023.84;;;0.46;91.53
10948;BME280;5526;42.070;24.752;2022-12-20T05:20:29;101088.94;;;0.89;91.39
10948;BME280;5526;42.070;24.752;2022-12-20T05:22:58;101055.81;;;0.64;91.21
10948;BME280;5526;42.070;24.752;2022-12-20T05:25:44;101026.97;;;0.30;92.78
10948;BME280;5526;42.070;24.752;2022-12-20T05:28:30;101032.72;;;0.24;93.42
10948;BME280;5526;42.070;24.752;2022-12-20T05:31:00;101021.53;;;0.14;94.15
10948;BME280;5526;42.070;24.752;2022-12-20T05:33:28;101066.09;;;0.27;95.04
10948;BME280;5526;42.070;24.752;2022-12-20T05:35:56;101012.53;;;-0.20;95.37
10948;BME280;5526;42.070;24.752;2022-12-20T05:38:24;101071.00;;;0.21;96.30
10948;BME280;5526;42.070;24.752;2022-12-20T05:40:52;101015.97;;;-0.29;96.18
10948;BME280;5526;42.070;24.752;2022-12-20T05:43:19;101028.63;;;-0.17;97.29
10948;BME280;5526;42.070;24.752;2022-12-20T05:45:48;101042.25;;;0.04;96.86
10948;BME280;5526;42.070;24.752;2022-12-20T05:48:18;101035.19;;;0.07;95.95
10948;BME280;5526;42.070;24.752;2022-12-20T05:50:47;101024.13;;;0.04;95.42
10948;BME280;5526;42.070;24.752;2022-12-20T05:53:15;101023.34;;;0.04;95.47
10948;BME280;5526;42.070;24.752;2022-12-20T05:55:46;101065.03;;;0.30;95.49
10948;BME280;5526;42.070;24.752;2022-12-20T05:58:14;101044.72;;;0.25;94.70
10948;BME280;5526;42.070;24.752;2022-12-20T06:00:43;101052.06;;;0.30;94.44
10948;BME280;5526;42.070;24.752;2022-12-20T06:03:11;101027.13;;;0.19;93.57
10948;BME280;5526;42.070;24.752;2022-12-20T06:05:41;101066.63;;;0.50;93.16
10948;BME280;5526;42.070;24.752;2022-12-20T06:08:11;101037.59;;;0.27;93.42
10948;BME280;5526;42.070;24.752;2022-12-20T06:10:40;101023.47;;;0.22;93.19
10948;BME280;5526;42.070;24.752;2022-12-20T06:13:08;101085.03;;;0.56;93.59
10948;BME280;5526;42.070;24.752;2022-12-20T06:15:36;101050.41;;;0.38;94.25
10948;BME280;5526;42.070;24.752;2022-12-20T06:18:05;101059.41;;;0.44;94.32
10948;BME280;5526;42.070;24.752;2022-12-20T06:20:33;101060.38;;;0.24;94.55
10948;BME280;5526;42.070;24.752;2022-12-20T06:23:03;101059.72;;;0.22;95.56
10948;BME280;5526;42.070;24.752;2022-12-20T06:25:32;101085.88;;;0.19;96.78
10948;BME280;5526;42.070;24.752;2022-12-20T06:28:00;101018.94;;;-0.15;96.44
10948;BME280;5526;42.070;24.752;2022-12-20T06:30:27;101042.13;;;-0.04;96.31
10948;BME280;5526;42.070;24.752;2022-12-20T06:32:55;101044.31;;;-0.09;96.88
10948;BME280;5526;42.070;24.752;2022-12-20T06:35:23;101024.53;;;-0.29;97.68
10948;BME280;5526;42.070;24.752;2022-12-20T06:37:51;101039.94;;;-0.08;97.31
10948;BME280;5526;42.070;24.752;2022-12-20T06:40:21;101092.53;;;0.31;97.37
10948;BME280;5526;42.070;24.752;2022-12-20T06:42:49;101110.81;;;0.39;97.64
10948;BME280;5526;42.070;24.752;2022-12-20T06:45:17;101089.25;;;0.29;98.74
10948;BME280;5526;42.070;24.752;2022-12-20T06:47:45;101060.78;;;0.19;98.54
10948;BME280;5526;42.070;24.752;2022-12-20T06:50:13;101061.03;;;0.45;97.66
10948;BME280;5526;42.070;24.752;2022-12-20T06:52:41;101040.38;;;0.26;99.04
10948;BME280;5526;42.070;24.752;2022-12-20T06:55:09;101097.97;;;0.66;98.84
10948;BME280;5526;42.070;24.752;2022-12-20T06:57:38;101058.88;;;0.40;98.93
10948;BME280;5526;42.070;24.752;2022-12-20T07:00:07;101052.47;;;0.16;100.00
10948;BME280;5526;42.070;24.752;2022-12-20T07:02:36;101100.00;;;0.72;100.00
10948;BME280;5526;42.070;24.752;2022-12-20T07:05:04;101044.19;;;0.22;100.00
10948;BME280;5526;42.070;24.752;2022-12-20T07:07:32;101012.41;;;0.10;100.00
10948;BME280;5526;42.070;24.752;2022-12-20T07:10:00;101067.19;;;0.44;100.00
10948;BME280;5526;42.070;24.752;2022-12-20T07:12:28;101029.56;;;0.01;100.00
10948;BME280;5526;42.070;24.752;2022-12-20T07:14:57;101027.25;;;0.17;100.00
10948;BME280;5526;42.070;24.752;2022-12-20T07:17:25;101064.72;;;0.52;100.00
10948;BME280;5526;42.070;24.752;2022-12-20T07:19:53;101056.50;;;0.75;100.00
10948;BME280;5526;42.070;24.752;2022-12-20T07:22:21;101080.19;;;0.90;100.00
10948;BME280;5526;42.070;24.752;2022-12-20T07:24:49;101062.47;;;0.76;100.00
10948;BME280;5526;42.070;24.752;2022-12-20T07:27:17;101022.38;;;0.80;100.00
10948;BME280;5526;42.070;24.752;2022-12-20T07:29:47;101024.09;;;0.98;100.00
10948;BME280;5526;42.070;24.752;2022-12-20T07:32:17;101035.69;;;1.21;97.62
10948;BME280;5526;42.070;24.752;2022-12-20T07:34:45;101030.94;;;0.90;98.19
10948;BME280;5526;42.070;24.752;2022-12-20T07:37:13;101099.25;;;1.35;99.65
10948;BME280;5526;42.070;24.752;2022-12-20T07:39:40;101040.09;;;1.21;98.52
10948;BME280;5526;42.070;24.752;2022-12-20T07:42:09;101018.66;;;0.82;99.24
10948;BME280;5526;42.070;24.752;2022-12-20T07:44:37;101070.88;;;1.06;99.43
10948;BME280;5526;42.070;24.752;2022-12-20T07:47:05;101036.75;;;1.01;100.00
10948;BME280;5526;42.070;24.752;2022-12-20T07:49:35;101033.00;;;1.40;98.04
10948;BME280;5526;42.070;24.752;2022-12-20T07:52:04;101027.75;;;1.32;97.16
10948;BME280;5526;42.070;24.752;2022-12-20T07:54:34;101041.63;;;1.14;96.96
10948;BME280;5526;42.070;24.752;2022-12-20T07:57:05;101051.75;;;1.61;96.98
10948;BME280;5526;42.070;24.752;2022-12-20T07:59:38;101036.75;;;1.55;95.32
10948;BME280;5526;42.070;24.752;2022-12-20T08:02:10;100990.81;;;1.48;93.89
10948;BME280;5526;42.070;24.752;2022-12-20T08:04:41;101013.22;;;1.39;94.50
10948;BME280;5526;42.070;24.752;2022-12-20T08:07:10;101046.03;;;1.58;97.12
10948;BME280;5526;42.070;24.752;2022-12-20T08:09:40;101045.22;;;1.57;96.63
10948;BME280;5526;42.070;24.752;2022-12-20T08:12:10;101025.13;;;1.59;94.14
10948;BME280;5526;42.070;24.752;2022-12-20T08:14:38;101026.19;;;1.66;94.58
10948;BME280;5526;42.070;24.752;2022-12-20T08:17:06;100995.69;;;1.68;94.20
10948;BME280;5526;42.070;24.752;2022-12-20T08:19:34;100986.63;;;2.07;92.50
10948;BME280;5526;42.070;24.752;2022-12-20T08:22:05;101031.38;;;2.62;91.18
10948;BME280;5526;42.070;24.752;2022-12-20T08:24:33;100972.16;;;2.05;89.55
10948;BME280;5526;42.070;24.752;2022-12-20T08:27:01;100966.84;;;2.32;90.73
10948;BME280;5526;42.070;24.752;2022-12-20T08:29:29;101024.59;;;2.69;90.36
10948;BME280;5526;42.070;24.752;2022-12-20T08:31:59;101018.22;;;2.63;89.47
10948;BME280;5526;42.070;24.752;2022-12-20T08:34:27;100978.03;;;2.50;89.76
10948;BME280;5526;42.070;24.752;2022-12-20T08:36:56;100978.03;;;2.50;88.76
10948;BME280;5526;42.070;24.752;2022-12-20T08:39:26;101042.59;;;2.88;87.85
10948;BME280;5526;42.070;24.752;2022-12-20T08:41:54;100983.28;;;2.58;86.56
10948;BME280;5526;42.070;24.752;2022-12-20T08:44:22;100984.50;;;2.46;86.95
10948;BME280;5526;42.070;24.752;2022-12-20T08:46:50;100987.94;;;2.54;87.18
10948;BME280;5526;42.070;24.752;2022-12-20T08:49:19;101028.19;;;3.35;86.65
10948;BME280;5526;42.070;24.752;2022-12-20T08:51:47;101003.13;;;3.42;84.54
10948;BME280;5526;42.070;24.752;2022-12-20T08:54:15;100962.63;;;3.39;83.02
10948;BME280;5526;42.070;24.752;2022-12-20T08:56:47;100981.88;;;3.70;81.74
10948;BME280;5526;42.070;24.752;2022-12-20T08:59:16;100992.31;;;3.70;81.82
10948;BME280;5526;42.070;24.752;2022-12-20T09:01:43;101003.03;;;3.67;80.81
10948;BME280;5526;42.070;24.752;2022-12-20T09:04:11;101012.38;;;3.94;81.24
10948;BME280;5526;42.070;24.752;2022-12-20T09:06:40;100970.34;;;3.81;79.89
10948;BME280;5526;42.070;24.752;2022-12-20T09:09:08;100974.59;;;3.98;79.39
10948;BME280;5526;42.070;24.752;2022-12-20T09:11:36;100951.16;;;4.06;78.08
10948;BME280;5526;42.070;24.752;2022-12-20T09:14:05;100987.13;;;3.94;79.06
10948;BME280;5526;42.070;24.752;2022-12-20T09:16:33;100956.00;;;4.01;78.46
10948;BME280;5526;42.070;24.752;2022-12-20T09:19:02;100949.00;;;4.17;77.10
10948;BME280;5526;42.070;24.752;2022-12-20T09:21:31;100951.28;;;4.20;76.58
10948;BME280;5526;42.070;24.752;2022-12-20T09:23:59;100957.66;;;4.02;76.58
10948;BME280;5526;42.070;24.752;2022-12-20T09:26:27;100966.47;;;4.17;76.59
10948;BME280;5526;42.070;24.752;2022-12-20T09:28:55;100917.94;;;3.60;73.34
10948;BME280;5526;42.070;24.752;2022-12-20T09:31:25;100924.13;;;3.75;76.14
10948;BME280;5526;42.070;24.752;2022-12-20T09:33:54;100922.50;;;4.06;74.94
10948;BME280;5526;42.070;24.752;2022-12-20T09:36:24;100915.59;;;4.37;73.43
10948;BME280;5526;42.070;24.752;2022-12-20T09:38:53;100919.22;;;4.12;70.56
10948;BME280;5526;42.070;24.752;2022-12-20T09:41:30;100918.25;;;3.73;72.00
10948;BME280;5526;42.070;24.752;2022-12-20T09:44:03;100899.63;;;4.32;73.51
10948;BME280;5526;42.070;24.752;2022-12-20T09:46:34;100910.16;;;4.63;71.76
10948;BME280;5526;42.070;24.752;2022-12-20T09:49:02;100952.09;;;5.22;71.31
10948;BME280;5526;42.070;24.752;2022-12-20T09:51:42;100902.69;;;4.90;67.62
10948;BME280;5526;42.070;24.752;2022-12-20T09:54:19;100865.78;;;5.01;67.62
10948;BME280;5526;42.070;24.752;2022-12-20T09:56:57;100874.44;;;5.24;68.27
10948;BME280;5526;42.070;24.752;2022-12-20T09:59:26;100894.44;;;5.62;67.79
10948;BME280;5526;42.070;24.752;2022-12-20T10:01:57;100888.09;;;5.57;65.53
10948;BME280;5526;42.070;24.752;2022-12-20T10:04:27;100910.25;;;5.61;63.87
10948;BME280;5526;42.070;24.752;2022-12-20T10:07:18;100883.56;;;5.51;63.26
10948;BME280;5526;42.070;24.752;2022-12-20T10:10:02;100864.22;;;4.92;63.86
10948;BME280;5526;42.070;24.752;2022-12-20T10:12:44;100866.75;;;4.69;65.53
10948;BME280;5526;42.070;24.752;2022-12-20T10:15:18;100834.47;;;5.01;65.53
10948;BME280;5526;42.070;24.752;2022-12-20T10:18:01;100879.63;;;5.77;64.18
10948;BME280;5526;42.070;24.752;2022-12-20T10:20:48;100903.97;;;5.70;64.41
10948;BME280;5526;42.070;24.752;2022-12-20T10:23:21;100841.41;;;5.39;63.97
10948;BME280;5526;42.070;24.752;2022-12-20T10:25:53;100827.28;;;5.48;63.84
10948;BME280;5526;42.070;24.752;2022-12-20T10:28:25;100828.06;;;5.71;62.45
10948;BME280;5526;42.070;24.752;2022-12-20T10:30:53;100827.53;;;5.16;60.62
10948;BME280;5526;42.070;24.752;2022-12-20T10:33:23;100855.69;;;5.66;63.45
10948;BME280;5526;42.070;24.752;2022-12-20T10:35:54;100807.22;;;5.49;62.05
10948;BME280;5526;42.070;24.752;2022-12-20T10:38:22;100819.56;;;5.92;61.63
10948;BME280;5526;42.070;24.752;2022-12-20T10:40:59;100818.59;;;5.56;58.30
10948;BME280;5526;42.070;24.752;2022-12-20T10:43:33;100836.41;;;5.67;61.52
10948;BME280;5526;42.070;24.752;2022-12-20T10:46:05;100823.25;;;5.60;61.67
10948;BME280;5526;42.070;24.752;2022-12-20T10:48:37;100789.84;;;5.56;60.44
10948;BME280;5526;42.070;24.752;2022-12-20T10:51:13;100776.22;;;5.46;59.91
10948;BME280;5526;42.070;24.752;2022-12-20T10:53:53;100787.88;;;5.58;58.64
10948;BME280;5526;42.070;24.752;2022-12-20T10:56:23;100767.03;;;5.50;60.55
10948;BME280;5526;42.070;24.752;2022-12-20T10:58:55;100805.97;;;5.59;59.38
10948;BME280;5526;42.070;24.752;2022-12-20T11:01:26;100774.03;;;5.35;59.27
10948;BME280;5526;42.070;24.752;2022-12-20T11:04:02;100766.28;;;5.04;58.40
10948;BME280;5526;42.070;24.752;2022-12-20T11:06:40;100768.06;;;5.26;58.31
10948;BME280;5526;42.070;24.752;2022-12-20T11:09:22;100758.22;;;5.65;58.07
10948;BME280;5526;42.070;24.752;2022-12-20T11:11:58;100744.91;;;5.75;58.74
10948;BME280;5526;42.070;24.752;2022-12-20T11:14:26;100731.09;;;5.37;60.43
10948;BME280;5526;42.070;24.752;2022-12-20T11:16:55;100749.13;;;5.84;59.75
10948;BME280;5526;42.070;24.752;2022-12-20T11:19:50;100699.53;;;6.05;58.32
10948;BME280;5526;42.070;24.752;2022-12-20T11:22:34;100738.38;;;5.93;57.02
10948;BME280;5526;42.070;24.752;2022-12-20T11:25:17;100703.84;;;5.98;57.84
10948;BME280;5526;42.070;24.752;2022-12-20T11:27:53;100714.03;;;6.07;58.60
10948;BME280;5526;42.070;24.752;2022-12-20T11:30:31;100730.41;;;6.30;57.44
10948;BME280;5526;42.070;24.752;2022-12-20T11:33:18;100746.84;;;6.24;57.86
10948;BME280;5526;42.070;24.752;2022-12-20T11:35:59;100756.22;;;6.54;57.00
10948;BME280;5526;42.070;24.752;2022-12-20T11:38:39;100736.81;;;6.28;59.07
10948;BME280;5526;42.070;24.752;2022-12-20T11:41:14;100678.47;;;6.42;58.75
10948;BME280;5526;42.070;24.752;2022-12-20T11:44:01;100673.53;;;6.53;57.52
10948;BME280;5526;42.070;24.752;2022-12-20T11:46:47;100682.06;;;6.83;56.02
10948;BME280;5526;42.070;24.752;2022-12-20T11:52:19;100670.47;;;6.71;55.68
10948;BME280;5526;42.070;24.752;2022-12-20T11:54:57;100665.66;;;6.95;56.58
10948;BME280;5526;42.070;24.752;2022-12-20T11:57:35;100701.31;;;6.75;56.98
10948;BME280;5526;42.070;24.752;2022-12-20T12:00:12;100727.06;;;7.20;57.08
10948;BME280;5526;42.070;24.752;2022-12-20T12:02:44;100659.22;;;7.25;56.13
10948;BME280;5526;42.070;24.752;2022-12-20T12:05:19;100708.47;;;7.64;55.21
10948;BME280;5526;42.070;24.752;2022-12-20T12:07:55;100657.94;;;7.42;54.43
10948;BME280;5526;42.070;24.752;2022-12-20T12:10:28;100660.16;;;7.45;55.55
10948;BME280;5526;42.070;24.752;2022-12-20T12:13:01;100704.91;;;7.78;55.38
10948;BME280;5526;42.070;24.752;2022-12-20T12:15:33;100660.84;;;7.54;55.78
10948;BME280;5526;42.070;24.752;2022-12-20T12:18:08;100658.81;;;7.49;54.92
10948;BME280;5526;42.070;24.752;2022-12-20T12:20:50;100617.50;;;7.51;54.44
10948;BME280;5526;42.070;24.752;2022-12-20T12:23:27;100622.75;;;7.58;52.96
10948;BME280;5526;42.070;24.752;2022-12-20T12:25:58;100653.03;;;7.67;54.69
10948;BME280;5526;42.070;24.752;2022-12-20T12:28:28;100650.72;;;7.51;54.94
10948;BME280;5526;42.070;24.752;2022-12-20T12:31:02;100635.00;;;7.51;54.36
10948;BME280;5526;42.070;24.752;2022-12-20T12:33:37;100611.41;;;7.44;54.04
10948;BME280;5526;42.070;24.752;2022-12-20T12:36:30;100668.72;;;7.60;53.41
10948;BME280;5526;42.070;24.752;2022-12-20T12:39:26;100630.22;;;7.54;53.59
10948;BME280;5526;42.070;24.752;2022-12-20T12:42:22;100676.88;;;7.78;52.12
10948;BME280;5526;42.070;24.752;2022-12-20T12:45:00;100620.81;;;7.32;54.00
10948;BME280;5526;42.070;24.752;2022-12-20T12:47:35;100659.94;;;7.40;54.01
10948;BME280;5526;42.070;24.752;2022-12-20T12:50:08;100670.59;;;7.39;54.03
10948;BME280;5526;42.070;24.752;2022-12-20T12:52:45;100625.31;;;7.11;54.54
10948;BME280;5526;42.070;24.752;2022-12-20T12:55:37;100672.91;;;7.55;54.09
10948;BME280;5526;42.070;24.752;2022-12-20T12:58:30;100663.56;;;7.39;52.73
10948;BME280;5526;42.070;24.752;2022-12-20T13:01:02;100639.53;;;7.02;54.56
10948;BME280;5526;42.070;24.752;2022-12-20T13:03:42;100608.28;;;6.94;53.04
10948;BME280;5526;42.070;24.752;2022-12-20T13:06:53;100678.66;;;7.10;53.43
10948;BME280;5526;42.070;24.752;2022-12-20T13:09:39;100603.00;;;6.39;55.13
10948;BME280;5526;42.070;24.752;2022-12-20T13:16:03;100668.16;;;6.82;55.85
10948;BME280;5526;42.070;24.752;2022-12-20T13:18:33;100674.91;;;6.91;55.74
10948;BME280;5526;42.070;24.752;2022-12-20T13:21:16;100621.47;;;6.58;55.24
10948;BME280;5526;42.070;24.752;2022-12-20T13:23:45;100635.00;;;6.62;56.04
10948;BME280;5526;42.070;24.752;2022-12-20T13:26:49;100627.44;;;6.73;55.05
10948;BME280;5526;42.070;24.752;2022-12-20T13:29:23;100613.19;;;6.55;56.35
10948;BME280;5526;42.070;24.752;2022-12-20T13:31:53;100617.75;;;6.67;55.98